Time;durP1;ratioP1;P1;durP2;ratioP2;P2;SDS_P1;SDS_P2;PMS_P1;PMS_P2;Temp;Humidity;BMP_temperature;BMP_pressure;BME280_temperature;BME280_humidity;BME280_pressure;Samples;Min_cycle;Max_cycle;Signal;HPM_P1;HPM_P2
2022/03/15 00:01:48;;;;;;;3.50;2.90;;;;;;;17.91;43.82;102824.88;5125466;28;20055;-59
2022/03/15 00:04:14;;;;;;;3.65;2.78;;;;;;;17.92;43.89;102820.34;5125283;28;20118;-59
2022/03/15 00:06:39;;;;;;;4.22;3.08;;;;;;;17.91;43.71;102829.41;5125029;28;20023;-59
2022/03/15 00:09:04;;;;;;;3.72;2.83;;;;;;;17.91;43.76;102827.56;5124374;28;20103;-58
2022/03/15 00:11:30;;;;;;;3.70;2.97;;;;;;;17.91;43.82;102821.31;5125325;28;20015;-58
2022/03/15 00:13:57;;;;;;;3.78;3.20;;;;;;;17.90;43.79;102822.31;5125180;28;20016;-59
2022/03/15 00:16:22;;;;;;;3.40;2.95;;;;;;;17.90;43.86;102819.63;5125029;28;20026;-59
2022/03/15 00:18:47;;;;;;;3.63;2.78;;;;;;;17.89;43.60;102816.06;5124650;28;20039;-58
2022/03/15 00:21:12;;;;;;;3.28;2.70;;;;;;;17.89;43.63;102816.06;5124359;28;20046;-59
2022/03/15 00:23:39;;;;;;;4.18;3.25;;;;;;;17.88;43.66;102816.16;5124416;28;20020;-59
2022/03/15 00:26:04;;;;;;;4.13;2.63;;;;;;;17.85;43.72;102814.59;5125004;28;20028;-59
2022/03/15 00:28:30;;;;;;;3.67;2.60;;;;;;;17.86;43.51;102816.28;5125151;28;20031;-59
2022/03/15 00:30:56;;;;;;;4.55;2.92;;;;;;;17.88;43.47;102821.56;5124457;28;20015;-59
2022/03/15 00:33:22;;;;;;;4.00;3.10;;;;;;;17.85;43.42;102817.28;5124842;28;20070;-58
2022/03/15 00:35:47;;;;;;;4.38;3.10;;;;;;;17.85;43.71;102806.50;5124436;28;20046;-58
2022/03/15 00:38:13;;;;;;;3.58;2.80;;;;;;;17.85;43.23;102801.13;5124664;28;20024;-58
2022/03/15 00:40:39;;;;;;;3.08;2.50;;;;;;;17.84;43.59;102804.81;5123770;28;20023;-59
2022/03/15 00:43:06;;;;;;;3.70;2.92;;;;;;;17.85;43.58;102806.50;5124753;28;20031;-58
2022/03/15 00:45:31;;;;;;;3.70;3.00;;;;;;;17.83;43.36;102800.38;5118835;28;20024;-59
2022/03/15 00:48:00;;;;;;;4.50;3.05;;;;;;;17.83;43.31;102802.22;5103689;28;20028;-58
2022/03/15 00:50:28;;;;;;;3.67;2.80;;;;;;;17.83;43.36;102794.13;5122460;28;20035;-59
2022/03/15 00:52:54;;;;;;;3.78;2.95;;;;;;;17.81;43.25;102793.41;5124360;28;20610;-58
2022/03/15 00:55:19;;;;;;;3.17;2.60;;;;;;;17.81;43.42;102793.41;5123935;28;20057;-59
2022/03/15 00:57:45;;;;;;;4.93;3.08;;;;;;;17.81;43.45;102796.09;5124518;28;20035;-58
2022/03/15 01:00:12;;;;;;;4.28;2.78;;;;;;;17.81;43.55;102788.88;5121298;28;20024;-59
2022/03/15 01:02:38;;;;;;;4.28;2.92;;;;;;;17.80;43.30;102791.66;5106308;28;20027;-59
2022/03/15 01:05:04;;;;;;;3.38;2.70;;;;;;;17.79;43.23;102793.50;5123973;28;20084;-59
2022/03/15 01:07:29;;;;;;;4.00;2.75;;;;;;;17.79;43.24;102789.97;5124094;28;20045;-59
2022/03/15 01:09:55;;;;;;;3.15;2.60;;;;;;;17.79;43.48;102792.66;5122954;28;20023;-58
2022/03/15 01:12:20;;;;;;;4.78;3.00;;;;;;;17.78;43.14;102786.41;5123145;28;20059;-58
2022/03/15 01:14:45;;;;;;;3.55;2.70;;;;;;;17.78;43.29;102790.94;5123884;28;20081;-59
2022/03/15 01:17:11;;;;;;;3.92;2.97;;;;;;;17.68;43.13;102777.28;5124140;28;20081;-56
2022/03/15 01:19:36;;;;;;;3.78;2.90;;;;;;;17.76;43.10;102788.38;5123540;28;20043;-59
2022/03/15 01:22:02;;;;;;;4.13;2.97;;;;;;;17.76;43.28;102787.53;5123244;28;20039;-58
2022/03/15 01:24:27;;;;;;;3.45;2.63;;;;;;;17.75;43.25;102781.25;5123136;28;20047;-59
2022/03/15 01:26:54;;;;;;;4.70;3.40;;;;;;;17.71;43.20;102780.63;5123779;28;20026;-59
2022/03/15 01:29:20;;;;;;;3.83;2.90;;;;;;;17.74;43.02;102783.09;5123663;28;20035;-59
2022/03/15 01:31:48;;;;;;;3.92;2.75;;;;;;;17.70;43.04;102769.97;5105642;28;20016;-59
2022/03/15 01:34:14;;;;;;;3.58;2.97;;;;;;;17.71;43.32;102775.25;5123821;28;20066;-58
2022/03/15 01:36:39;;;;;;;3.47;2.78;;;;;;;17.73;43.17;102767.03;5123204;28;20076;-59
2022/03/15 01:39:05;;;;;;;3.38;2.92;;;;;;;17.71;43.11;102772.56;5123195;28;20517;-59
2022/03/15 01:41:35;;;;;;;3.30;2.70;;;;;;;17.72;43.17;102765.34;5123634;28;20114;-59
2022/03/15 01:44:03;;;;;;;3.63;2.80;;;;;;;17.71;43.10;102758.22;5124186;28;20106;-58
2022/03/15 01:46:28;;;;;;;3.30;2.63;;;;;;;17.70;43.22;102761.88;5123474;28;20023;-58
2022/03/15 01:48:53;;;;;;;3.00;2.50;;;;;;;17.69;43.16;102755.66;5122024;28;20054;-57
2022/03/15 01:51:19;;;;;;;3.50;3.20;;;;;;;17.70;42.85;102756.50;5123394;28;20019;-58
2022/03/15 01:53:44;;;;;;;4.07;2.90;;;;;;;17.68;43.00;102750.41;5123113;28;20081;-59
2022/03/15 01:56:09;;;;;;;3.42;2.70;;;;;;;17.68;42.95;102750.41;5123724;28;20027;-59
2022/03/15 01:58:35;;;;;;;3.05;2.67;;;;;;;17.66;42.94;102744.25;5124787;28;20181;-59
2022/03/15 02:01:00;;;;;;;3.42;2.75;;;;;;;17.66;42.94;102747.81;5126058;28;20019;-59
2022/03/15 02:03:25;;;;;;;3.60;2.65;;;;;;;17.66;42.81;102745.13;5127732;28;20126;-59
2022/03/15 02:05:51;;;;;;;3.38;2.55;;;;;;;17.65;42.83;102743.41;5127327;28;20032;-59
2022/03/15 02:08:17;;;;;;;2.95;2.50;;;;;;;17.63;42.92;102736.44;5127485;28;20028;-59
2022/03/15 02:10:43;;;;;;;3.40;2.75;;;;;;;17.65;42.92;102745.25;5126869;28;20051;-59
2022/03/15 02:13:09;;;;;;;3.55;2.85;;;;;;;17.65;42.91;102737.16;5127599;28;20039;-59
2022/03/15 02:15:36;;;;;;;3.35;2.88;;;;;;;17.61;42.79;102733.00;5127497;28;20055;-60
2022/03/15 02:18:01;;;;;;;3.13;2.83;;;;;;;17.63;42.50;102734.59;5127230;28;20035;-59
2022/03/15 02:20:27;;;;;;;3.40;2.63;;;;;;;17.63;42.92;102733.75;5126812;28;20038;-59
2022/03/15 02:22:53;;;;;;;3.20;2.70;;;;;;;17.63;42.75;102739.13;5127143;28;20063;-59
2022/03/15 02:25:18;;;;;;;3.75;2.75;;;;;;;17.61;42.64;102727.63;5126969;28;20056;-59
2022/03/15 02:27:43;;;;;;;3.17;2.45;;;;;;;17.61;42.84;102730.31;5124878;28;20027;-59
2022/03/15 02:30:09;;;;;;;3.97;2.67;;;;;;;17.61;42.62;102722.22;5107631;28;20035;-59
2022/03/15 02:32:35;;;;;;;3.22;2.92;;;;;;;17.61;42.74;102722.22;5108115;28;20024;-59
2022/03/15 02:35:01;;;;;;;3.42;2.50;;;;;;;17.57;42.57;102710.84;5126418;28;20216;-60
2022/03/15 02:37:26;;;;;;;3.15;2.55;;;;;;;17.60;42.81;102720.53;5126485;28;20035;-58
2022/03/15 02:39:51;;;;;;;3.75;2.97;;;;;;;17.59;42.65;102716.97;5126412;28;20031;-59
2022/03/15 02:42:18;;;;;;;3.53;2.72;;;;;;;17.59;42.69;102713.44;5127267;28;20039;-60
2022/03/15 02:44:43;;;;;;;3.05;2.63;;;;;;;17.58;42.98;102715.25;5125955;28;20035;-59
2022/03/15 02:47:08;;;;;;;3.55;2.72;;;;;;;17.57;42.61;102705.47;5126147;28;20039;-59
2022/03/15 02:49:34;;;;;;;2.83;2.53;;;;;;;17.57;42.51;102700.09;5125414;28;20123;-59
2022/03/15 02:51:59;;;;;;;2.83;2.55;;;;;;;17.57;42.55;102697.41;5126247;28;20030;-59
2022/03/15 02:54:24;;;;;;;4.47;2.90;;;;;;;17.56;42.60;102700.22;5126390;28;20035;-59
2022/03/15 02:56:50;;;;;;;3.40;2.90;;;;;;;17.57;42.29;102699.22;5126441;28;20063;-60
2022/03/15 02:59:15;;;;;;;4.07;3.10;;;;;;;17.56;42.51;102698.38;5126381;28;20030;-59
2022/03/15 03:01:45;;;;;;;3.00;2.53;;;;;;;17.55;42.43;102691.28;5126464;28;20024;-59
2022/03/15 03:04:10;;;;;;;3.67;2.75;;;;;;;17.55;42.57;102693.97;5126573;28;20034;-59
2022/03/15 03:06:41;;;;;;;3.92;2.97;;;;;;;17.56;42.62;102689.47;5126026;28;20016;-59
2022/03/15 03:09:06;;;;;;;3.20;2.90;;;;;;;17.55;42.44;102691.28;5125558;28;20024;-59
2022/03/15 03:11:31;;;;;;;4.10;3.00;;;;;;;17.54;42.54;102694.94;5126003;28;20274;-57
2022/03/15 03:13:58;;;;;;;3.17;2.75;;;;;;;17.54;42.39;102686.88;5126506;28;20042;-59
2022/03/15 03:16:24;;;;;;;3.38;2.72;;;;;;;17.53;42.57;102685.16;5126526;28;20020;-59
2022/03/15 03:18:54;;;;;;;3.95;3.15;;;;;;;17.54;42.50;102689.56;5126061;28;20035;-58
2022/03/15 03:21:20;;;;;;;3.40;2.65;;;;;;;17.54;42.38;102683.31;5125781;28;20039;-57
2022/03/15 03:23:45;;;;;;;3.72;3.03;;;;;;;17.53;42.53;102682.47;5125507;28;20638;-59
2022/03/15 03:26:10;;;;;;;3.00;2.70;;;;;;;17.53;42.23;102681.63;5126264;27;20030;-57
2022/03/15 03:28:39;;;;;;;2.95;2.40;;;;;;;17.52;42.45;102688.81;5126062;28;20027;-59
2022/03/15 03:31:07;;;;;;;3.20;2.90;;;;;;;17.52;42.22;102690.66;5125815;28;20027;-58
2022/03/15 03:33:32;;;;;;;3.10;2.80;;;;;;;17.52;42.40;102685.28;5126128;28;20054;-59
2022/03/15 03:35:58;;;;;;;3.55;3.08;;;;;;;17.48;42.41;102680.13;5125559;28;20507;-59
2022/03/15 03:38:24;;;;;;;3.30;3.00;;;;;;;17.51;42.13;102686.25;5125852;28;20034;-58
2022/03/15 03:40:50;;;;;;;4.18;3.03;;;;;;;17.50;42.39;102688.09;5123801;28;20035;-59
2022/03/15 03:43:15;;;;;;;3.63;2.92;;;;;;;17.51;42.10;102689.81;5126284;27;20030;-59
2022/03/15 03:45:41;;;;;;;4.50;3.25;;;;;;;17.50;42.20;102690.78;5125351;28;20057;-59
2022/03/15 03:48:06;;;;;;;3.35;2.85;;;;;;;17.50;42.29;102688.09;5125585;28;20562;-59
2022/03/15 03:50:32;;;;;;;4.57;3.35;;;;;;;17.49;42.15;102692.59;5124657;28;20028;-59
2022/03/15 03:52:58;;;;;;;3.33;2.80;;;;;;;17.49;42.08;102686.34;5125893;28;20422;-59
2022/03/15 03:55:23;;;;;;;4.40;3.35;;;;;;;17.49;42.00;102691.75;5125318;28;20027;-59
2022/03/15 03:57:48;;;;;;;4.38;2.97;;;;;;;17.46;41.99;102682.09;5125606;28;20031;-59
2022/03/15 04:00:15;;;;;;;3.25;2.83;;;;;;;17.49;42.11;102689.06;5125277;28;20042;-59
2022/03/15 04:02:40;;;;;;;3.88;3.40;;;;;;;17.48;42.04;102690.03;5124366;28;20042;-59
2022/03/15 04:05:06;;;;;;;3.45;2.80;;;;;;;17.48;42.01;102684.66;5125393;28;20028;-57
2022/03/15 04:07:32;;;;;;;4.82;3.22;;;;;;;17.45;42.17;102677.66;5124832;27;20015;-59
2022/03/15 04:09:57;;;;;;;4.20;3.10;;;;;;;17.48;42.03;102684.66;5122941;28;20053;-58
2022/03/15 04:12:23;;;;;;;2.95;2.63;;;;;;;17.46;42.02;102686.63;5125347;28;20035;-59
2022/03/15 04:14:48;;;;;;;3.03;2.72;;;;;;;17.47;41.93;102682.94;5125191;28;20026;-58
2022/03/15 04:17:15;;;;;;;3.60;3.15;;;;;;;17.46;42.03;102676.72;5125159;28;20023;-58
2022/03/15 04:19:40;;;;;;;3.38;2.80;;;;;;;17.46;42.10;102679.41;5124796;28;20055;-59
2022/03/15 04:22:06;;;;;;;3.22;2.80;;;;;;;17.45;41.98;102676.81;5123619;28;20040;-58
2022/03/15 04:24:32;;;;;;;3.47;3.17;;;;;;;17.45;41.97;102677.66;5124965;28;20019;-56
2022/03/15 04:26:59;;;;;;;3.65;2.92;;;;;;;17.46;41.89;102686.63;5124840;28;20031;-58
2022/03/15 04:29:26;;;;;;;3.22;2.92;;;;;;;17.45;42.00;102684.88;5123307;28;20031;-58
2022/03/15 04:31:51;;;;;;;3.10;2.80;;;;;;;17.42;41.84;102682.44;5124617;28;20024;-59
2022/03/15 04:34:17;;;;;;;3.45;2.70;;;;;;;17.44;41.98;102680.47;5124431;28;20035;-58
2022/03/15 04:36:43;;;;;;;3.10;2.80;;;;;;;17.43;41.88;102679.63;5124479;28;20076;-58
2022/03/15 04:39:08;;;;;;;4.38;3.05;;;;;;;17.43;41.81;102679.63;5123680;27;20015;-55
2022/03/15 04:41:33;;;;;;;3.30;3.00;;;;;;;17.43;41.99;102684.16;5124085;28;20024;-58
2022/03/15 04:43:58;;;;;;;3.47;3.08;;;;;;;17.42;41.71;102685.97;5124884;28;20028;-59
2022/03/15 04:46:24;;;;;;;3.30;3.00;;;;;;;17.42;41.81;102677.91;5116921;28;20035;-58
2022/03/15 04:48:49;;;;;;;4.53;3.20;;;;;;;17.41;41.66;102673.50;5122821;28;20035;-58
2022/03/15 04:51:14;;;;;;;3.80;3.15;;;;;;;17.42;41.81;102677.06;5123909;28;20024;-58
2022/03/15 04:53:40;;;;;;;3.92;3.10;;;;;;;17.42;41.84;102677.91;5124431;28;20030;-56
2022/03/15 04:56:05;;;;;;;3.85;3.13;;;;;;;17.43;41.70;102678.78;5124731;28;20035;-58
2022/03/15 04:58:30;;;;;;;3.70;2.90;;;;;;;17.41;41.66;102670.78;5124337;28;20031;-59
2022/03/15 05:00:56;;;;;;;4.00;3.10;;;;;;;17.41;41.78;102669.94;5124058;28;20023;-59
2022/03/15 05:03:21;;;;;;;3.30;3.00;;;;;;;17.41;41.71;102673.50;5124147;28;20087;-59
2022/03/15 05:05:46;;;;;;;3.92;3.25;;;;;;;17.39;41.82;102669.22;5124164;28;20156;-59
2022/03/15 05:08:12;;;;;;;3.30;2.90;;;;;;;17.40;41.83;102674.47;5124133;28;20047;-59
2022/03/15 05:13:22;;;;;;;4.03;2.92;;;;;;;17.39;41.82;102669.22;5124342;28;20053;-59
2022/03/15 05:15:48;;;;;;;3.15;2.85;;;;;;;17.39;41.83;102663.84;5123954;28;20035;-59
2022/03/15 05:18:13;;;;;;;3.00;2.70;;;;;;;17.38;41.77;102660.31;5123755;28;20091;-58
2022/03/15 05:20:38;;;;;;;4.07;3.67;;;;;;;17.37;41.88;102655.88;5123293;28;20031;-58
2022/03/15 05:23:04;;;;;;;3.13;2.83;;;;;;;17.37;41.69;102653.19;5124011;28;20412;-59
2022/03/15 05:25:29;;;;;;;3.80;2.53;;;;;;;17.36;41.79;102647.94;5123790;28;20031;-59
2022/03/15 05:27:54;;;;;;;3.63;2.90;;;;;;;17.38;41.95;102663.00;5123719;28;20115;-59
2022/03/15 05:30:19;;;;;;;4.43;3.30;;;;;;;17.37;41.82;102655.03;5123831;28;20024;-59
2022/03/15 05:32:45;;;;;;;3.28;2.97;;;;;;;17.37;41.70;102657.72;5123847;28;20107;-59
2022/03/15 05:35:10;;;;;;;3.00;2.70;;;;;;;17.37;41.67;102663.94;5123871;28;20034;-59
2022/03/15 05:37:35;;;;;;;3.38;2.78;;;;;;;17.37;41.78;102665.78;5123290;28;20068;-59
2022/03/15 05:40:01;;;;;;;3.83;2.97;;;;;;;17.36;41.74;102662.22;5122971;28;20057;-59
2022/03/15 05:42:26;;;;;;;4.57;3.20;;;;;;;17.34;41.84;102661.50;5124327;28;20041;-60
2022/03/15 05:44:52;;;;;;;4.65;3.15;;;;;;;17.33;41.64;102649.03;5124008;28;20027;-60
2022/03/15 05:47:17;;;;;;;3.38;2.70;;;;;;;17.34;41.70;102648.06;5123527;28;20035;-59
2022/03/15 05:49:43;;;;;;;3.28;2.92;;;;;;;17.28;41.68;102645.81;5123002;28;20028;-60
2022/03/15 05:52:08;;;;;;;3.88;2.72;;;;;;;17.31;41.35;102642.06;5123384;28;20019;-60
2022/03/15 05:54:34;;;;;;;3.65;2.80;;;;;;;17.32;41.61;102647.31;5122478;28;20023;-59
2022/03/15 05:56:59;;;;;;;3.25;2.80;;;;;;;17.34;41.83;102650.75;5122324;28;20019;-59
2022/03/15 05:59:24;;;;;;;3.22;2.45;;;;;;;17.32;41.73;102647.31;5123576;28;20400;-59
2022/03/15 06:01:50;;;;;;;3.10;2.80;;;;;;;17.33;41.73;102651.72;5123421;28;20049;-60
2022/03/15 06:04:15;;;;;;;3.70;3.05;;;;;;;17.33;41.66;102645.47;5123344;28;20494;-59
2022/03/15 06:06:40;;;;;;;3.38;2.95;;;;;;;17.33;41.69;102645.47;5118075;28;20107;-59
2022/03/15 06:09:05;;;;;;;3.55;3.20;;;;;;;17.33;41.73;102645.47;5123027;28;20057;-59
2022/03/15 06:11:34;;;;;;;3.90;3.13;;;;;;;17.32;41.72;102643.75;5123262;28;20435;-60
2022/03/15 06:13:59;;;;;;;4.25;3.08;;;;;;;17.29;41.84;102636.81;5123883;28;20039;-59
2022/03/15 06:16:25;;;;;;;4.10;3.13;;;;;;;17.30;41.94;102641.19;5121760;28;20027;-59
2022/03/15 06:18:50;;;;;;;3.60;3.30;;;;;;;17.33;42.29;102640.09;5103042;28;20035;-59
2022/03/15 06:21:16;;;;;;;3.33;2.85;;;;;;;17.33;42.18;102640.97;5113016;28;20051;-59
2022/03/15 06:23:42;;;;;;;2.92;2.55;;;;;;;17.33;42.06;102634.72;5119681;28;20094;-58
2022/03/15 06:26:08;;;;;;;3.85;3.33;;;;;;;17.32;42.00;102633.84;5109208;28;20464;-59
2022/03/15 06:28:34;;;;;;;3.60;3.30;;;;;;;17.33;42.09;102630.22;5122760;28;20061;-59
2022/03/15 06:30:59;;;;;;;4.97;3.35;;;;;;;17.33;42.33;102629.34;5118554;28;20020;-59
2022/03/15 06:33:25;;;;;;;3.53;3.22;;;;;;;17.32;42.22;102625.78;5108625;28;20024;-59
2022/03/15 06:35:50;;;;;;;3.42;2.92;;;;;;;17.31;42.44;102621.41;5116010;28;20027;-58
2022/03/15 06:38:15;;;;;;;4.10;3.35;;;;;;;17.32;42.33;102623.09;5107580;28;20063;-59
2022/03/15 06:40:42;;;;;;;3.55;3.25;;;;;;;17.33;42.37;102629.34;5102683;28;20020;-59
2022/03/15 06:43:09;;;;;;;3.80;2.97;;;;;;;17.33;42.64;102618.59;5109397;28;20024;-59
2022/03/15 06:45:34;;;;;;;3.58;2.83;;;;;;;17.32;42.60;102624.94;5120050;28;20024;-59
2022/03/15 06:47:59;;;;;;;3.63;2.97;;;;;;;17.31;42.65;102626.78;5127049;27;20028;-59
2022/03/15 06:50:24;;;;;;;3.38;2.75;;;;;;;17.31;42.76;102623.22;5126697;28;20023;-59
2022/03/15 06:52:50;;;;;;;3.10;2.72;;;;;;;17.29;42.86;102623.38;5126334;28;20023;-59
2022/03/15 06:55:16;;;;;;;4.07;2.92;;;;;;;17.28;42.85;102618.09;5126406;28;20399;-59
2022/03/15 06:57:41;;;;;;;2.50;2.30;;;;;;;17.24;42.96;102612.06;5126783;28;20011;-59
2022/03/15 07:00:09;;;;;;;3.40;2.60;;;;;;;17.26;42.95;102615.53;5112690;28;20035;-59
2022/03/15 07:02:35;;;;;;;3.05;2.75;;;;;;;17.23;43.17;102607.69;5105925;28;20016;-59
2022/03/15 07:05:00;;;;;;;3.38;2.65;;;;;;;17.23;43.24;102613.06;5116736;28;20054;-59
2022/03/15 07:07:26;;;;;;;2.58;2.33;;;;;;;17.23;43.17;102610.38;5118146;28;20032;-59
2022/03/15 07:09:53;;;;;;;3.45;2.40;;;;;;;17.21;43.37;102601.56;5103813;28;20472;-59
2022/03/15 07:12:19;;;;;;;2.63;2.42;;;;;;;17.22;42.90;102609.50;5119690;28;20031;-59
2022/03/15 07:14:45;;;;;;;2.67;2.47;;;;;;;17.22;43.35;102609.50;5106041;28;20028;-59
2022/03/15 07:17:10;;;;;;;2.78;2.33;;;;;;;17.22;43.44;102608.66;5105591;28;20024;-59
2022/03/15 07:19:35;;;;;;;2.30;2.10;;;;;;;17.21;43.30;102610.50;5109521;28;20023;-59
2022/03/15 07:22:02;;;;;;;3.25;2.47;;;;;;;17.20;43.39;102606.09;5111151;28;20032;-59
2022/03/15 07:24:27;;;;;;;2.88;2.50;;;;;;;17.22;43.51;102605.97;5106833;28;20049;-59
2022/03/15 07:26:52;;;;;;;2.85;2.40;;;;;;;17.22;43.49;102608.66;5125488;28;20035;-60
2022/03/15 07:29:17;;;;;;;2.70;2.28;;;;;;;17.22;43.57;102603.28;5125856;28;20024;-59
2022/03/15 07:31:43;;;;;;;2.60;2.40;;;;;;;17.21;43.70;102599.75;5125171;28;20069;-59
2022/03/15 07:34:09;;;;;;;2.40;2.20;;;;;;;17.13;43.82;102585.16;5124820;28;20424;-59
2022/03/15 07:36:35;;;;;;;2.33;2.13;;;;;;;17.21;43.42;102599.75;5103634;28;20032;-59
2022/03/15 07:39:00;;;;;;;2.63;2.20;;;;;;;17.22;43.37;102596.06;5104468;28;20027;-59
2022/03/15 07:41:26;;;;;;;2.95;2.10;;;;;;;17.22;43.60;102595.22;5115124;28;20024;-59
2022/03/15 07:43:51;;;;;;;2.47;2.00;;;;;;;17.21;43.65;102593.50;5125394;28;20019;-59
2022/03/15 07:46:16;;;;;;;3.17;2.28;;;;;;;17.17;43.71;102603.63;5122614;28;20051;-60
2022/03/15 07:48:42;;;;;;;2.70;2.17;;;;;;;17.16;43.67;102598.34;5117045;28;20036;-59
2022/03/15 07:51:07;;;;;;;3.00;2.65;;;;;;;17.14;44.13;102595.78;5123528;28;20020;-59
2022/03/15 07:53:32;;;;;;;2.40;2.20;;;;;;;17.11;43.69;102589.78;5108466;28;20032;-58
2022/03/15 07:56:00;;;;;;;3.47;2.28;;;;;;;17.09;43.88;102595.28;5120269;28;20092;-59
2022/03/15 07:58:25;;;;;;;3.30;2.40;;;;;;;17.09;43.98;102591.75;5123527;28;20034;-59
2022/03/15 08:00:54;;;;;;;2.67;2.45;;;;;;;17.07;43.76;102591.84;5124909;28;20075;-60
2022/03/15 08:03:19;;;;;;;2.65;2.40;;;;;;;17.07;43.84;102597.22;5121844;28;20042;-60
2022/03/15 08:05:44;;;;;;;2.38;2.05;;;;;;;17.09;43.80;102589.06;5123317;28;20047;-60
2022/03/15 08:08:10;;;;;;;2.20;1.98;;;;;;;17.09;43.77;102589.91;5121580;28;20031;-59
2022/03/15 08:10:35;;;;;;;2.10;1.90;;;;;;;17.11;43.90;102589.78;5124516;28;20027;-59
2022/03/15 08:13:00;;;;;;;2.75;2.30;;;;;;;17.04;44.07;102580.50;5125419;28;20053;-59
2022/03/15 08:15:25;;;;;;;2.45;2.20;;;;;;;17.13;43.78;102598.59;5124751;28;20031;-60
2022/03/15 08:17:51;;;;;;;2.08;1.85;;;;;;;17.13;43.73;102595.91;5118049;28;20020;-57
2022/03/15 08:20:20;;;;;;;2.65;2.22;;;;;;;17.15;43.67;102599.34;5114899;28;20114;-58
2022/03/15 08:22:46;;;;;;;2.38;2.17;;;;;;;17.16;43.72;102590.28;5107592;28;20047;-56
2022/03/15 08:25:11;;;;;;;2.28;2.00;;;;;;;17.18;43.83;102596.44;5112932;28;20027;-56
2022/03/15 08:27:36;;;;;;;2.53;2.00;;;;;;;17.19;43.73;102598.13;5114655;27;20031;-58
2022/03/15 08:30:03;;;;;;;2.25;2.00;;;;;;;17.21;43.91;102598.88;5121976;28;20049;-55
2022/03/15 08:32:28;;;;;;;2.60;2.00;;;;;;;17.22;43.70;102604.13;5114431;27;20030;-57
2022/03/15 08:34:53;;;;;;;2.13;1.92;;;;;;;17.21;43.99;102599.75;5118588;28;20046;-58
2022/03/15 08:37:19;;;;;;;2.78;2.40;;;;;;;17.21;44.01;102601.56;5115630;28;20028;-58
2022/03/15 08:39:44;;;;;;;2.95;2.10;;;;;;;17.20;43.96;102595.34;5117417;28;20024;-58
2022/03/15 08:42:09;;;;;;;2.30;2.05;;;;;;;17.18;43.80;102597.28;5114909;28;20035;-57
2022/03/15 08:44:35;;;;;;;2.20;2.00;;;;;;;17.18;44.22;102593.75;5110618;28;20074;-58
2022/03/15 08:47:00;;;;;;;2.03;1.80;;;;;;;17.16;44.17;102596.56;5114825;28;20044;-57
2022/03/15 08:49:25;;;;;;;2.22;2.03;;;;;;;17.13;44.32;102588.72;5117260;28;20031;-54
2022/03/15 08:51:51;;;;;;;2.08;1.77;;;;;;;17.15;44.31;102593.97;5115039;28;20061;-55
2022/03/15 08:54:17;;;;;;;2.33;1.92;;;;;;;17.11;44.40;102582.56;5109857;28;20404;-58
2022/03/15 08:56:43;;;;;;;3.03;2.13;;;;;;;17.13;44.46;102591.41;5115640;28;20077;-59
2022/03/15 08:59:12;;;;;;;2.85;2.50;;;;;;;17.09;44.40;102589.06;5119732;28;20039;-61
2022/03/15 09:01:37;;;;;;;2.35;2.10;;;;;;;17.12;44.22;102589.69;5112568;28;20036;-58
2022/03/15 09:04:03;;;;;;;1.83;1.70;;;;;;;17.14;44.43;102587.72;5115639;28;20032;-57
2022/03/15 09:06:28;;;;;;;2.40;2.20;;;;;;;17.12;44.46;102578.06;5112810;28;20062;-58
2022/03/15 09:08:53;;;;;;;2.83;2.10;;;;;;;17.13;44.62;102571.72;5113165;28;20064;-59
2022/03/15 09:11:19;;;;;;;1.90;1.70;;;;;;;17.09;44.49;102563.03;5113942;28;20085;-58
2022/03/15 09:13:44;;;;;;;2.33;1.90;;;;;;;17.12;44.67;102562.81;5115766;28;20032;-57
2022/03/15 09:16:12;;;;;;;2.40;1.70;;;;;;;17.12;44.81;102573.56;5117340;28;20055;-60
2022/03/15 09:18:37;;;;;;;3.47;2.17;;;;;;;17.12;44.66;102560.13;5115672;28;20091;-59
2022/03/15 09:21:02;;;;;;;2.13;1.85;;;;;;;17.12;44.71;102564.63;5101661;28;20048;-58
2022/03/15 09:23:28;;;;;;;2.72;2.35;;;;;;;17.12;44.82;102561.94;5113622;28;20393;-57
2022/03/15 09:25:53;;;;;;;2.28;1.92;;;;;;;17.11;44.87;102558.41;5113598;28;20038;-55
2022/03/15 09:28:18;;;;;;;2.40;1.70;;;;;;;17.12;44.91;102565.50;5117727;28;20027;-57
2022/03/15 09:30:45;;;;;;;2.63;2.05;;;;;;;17.12;44.79;102561.94;5112308;28;20045;-54
2022/03/15 09:33:10;;;;;;;2.63;2.15;;;;;;;17.11;44.96;102561.06;5114530;28;20495;-57
2022/03/15 09:35:35;;;;;;;3.00;2.30;;;;;;;17.12;45.09;102553.88;5109744;28;20024;-58
2022/03/15 09:38:01;;;;;;;2.58;2.22;;;;;;;17.12;44.98;102562.81;5112886;28;20565;-57
2022/03/15 09:40:26;;;;;;;2.75;2.05;;;;;;;17.12;45.08;102553.88;5108816;28;20031;-56
2022/03/15 09:43:00;;;;;;;2.28;1.92;;;;;;;17.14;45.03;102555.47;5113828;28;20721;-57
2022/03/15 09:45:31;;;;;;;1.98;1.77;;;;;;;17.15;45.10;102556.34;5116384;28;20039;-58
2022/03/15 09:47:57;;;;;;;2.35;2.15;;;;;;;17.13;45.02;102553.78;5113193;28;20059;-57
2022/03/15 09:50:24;;;;;;;2.78;2.10;;;;;;;17.14;45.11;102549.25;5115606;28;20043;-59
2022/03/15 09:52:50;;;;;;;2.90;1.73;;;;;;;17.15;44.98;102545.59;5111160;28;20024;-59
2022/03/15 09:55:16;;;;;;;2.95;2.22;;;;;;;17.14;45.13;102539.34;5116666;28;20028;-52
2022/03/15 09:57:41;;;;;;;2.65;2.20;;;;;;;17.13;45.00;102544.84;5113470;28;20038;-58
2022/03/15 10:00:12;;;;;;;2.08;1.88;;;;;;;17.11;45.00;102534.19;5120913;28;20028;-58
2022/03/15 10:02:40;;;;;;;2.45;2.10;;;;;;;17.15;45.18;102530.31;5119415;28;20030;-57
2022/03/15 10:05:05;;;;;;;2.47;2.25;;;;;;;17.15;44.98;102533.00;5114972;28;20049;-58
2022/03/15 10:07:31;;;;;;;2.15;1.90;;;;;;;17.15;45.12;102537.53;5116844;28;20422;-60
2022/03/15 10:09:56;;;;;;;2.30;2.03;;;;;;;17.16;45.12;102540.09;5119816;28;20030;-56
2022/03/15 10:12:22;;;;;;;1.80;1.70;;;;;;;17.08;45.11;102517.47;5115713;28;20088;-58
2022/03/15 10:14:48;;;;;;;4.47;2.58;;;;;;;17.18;45.04;102523.84;5115187;28;20038;-56
2022/03/15 10:17:17;;;;;;;2.10;1.90;;;;;;;17.17;45.25;102522.16;5113969;28;20843;-59
2022/03/15 10:19:56;;;;;;;2.08;1.85;;;;;;;17.18;45.05;102522.03;5116868;28;20042;-58
2022/03/15 10:22:23;;;;;;;3.38;2.20;;;;;;;17.16;45.09;102515.91;5116985;28;20046;-59
2022/03/15 10:24:48;;;;;;;2.20;1.98;;;;;;;17.17;45.02;102523.00;5112854;28;20043;-59
2022/03/15 10:27:14;;;;;;;3.08;2.28;;;;;;;17.18;45.03;102513.97;5124256;28;20047;-59
2022/03/15 10:29:42;;;;;;;2.47;2.08;;;;;;;17.18;44.97;102508.59;5117749;28;20032;-59
2022/03/15 10:32:08;;;;;;;2.78;2.03;;;;;;;17.19;45.01;102507.59;5115145;28;20039;-58
2022/03/15 10:34:33;;;;;;;2.67;2.05;;;;;;;17.20;44.91;102503.06;5121341;28;20086;-59
2022/03/15 10:36:58;;;;;;;1.98;1.67;;;;;;;17.21;44.95;102499.44;5117099;28;20100;-60
2022/03/15 10:39:25;;;;;;;1.88;1.70;;;;;;;17.22;44.96;102501.13;5118282;28;20024;-59
2022/03/15 10:41:57;;;;;;;2.13;1.80;;;;;;;17.23;44.80;102497.47;5117288;28;20449;-59
2022/03/15 10:44:26;;;;;;;2.40;1.67;;;;;;;17.24;44.96;102499.19;5118658;28;20035;-58
2022/03/15 10:47:08;;;;;;;2.55;1.85;;;;;;;17.27;44.78;102487.34;5118772;28;20039;-59
2022/03/15 10:49:52;;;;;;;2.40;1.92;;;;;;;17.26;44.78;102478.44;5116672;28;20043;-58
2022/03/15 10:52:28;;;;;;;2.28;1.75;;;;;;;17.28;44.77;102475.59;5124127;28;20041;-59
2022/03/15 10:54:53;;;;;;;2.90;2.60;;;;;;;17.28;44.89;102470.22;5115474;28;20057;-55
2022/03/15 10:57:19;;;;;;;2.20;2.00;;;;;;;17.30;44.74;102470.97;5119944;28;20047;-58
2022/03/15 10:59:44;;;;;;;2.40;1.83;;;;;;;17.31;44.74;102464.63;5115151;28;20032;-59
2022/03/15 11:02:12;;;;;;;2.30;2.10;;;;;;;17.32;44.74;102469.00;5119854;28;20035;-60
2022/03/15 11:04:45;;;;;;;2.90;2.05;;;;;;;17.35;44.71;102458.88;5120217;28;20049;-60
2022/03/15 11:07:11;;;;;;;2.47;1.83;;;;;;;17.35;44.63;102456.19;5114961;28;20086;-60
2022/03/15 11:09:36;;;;;;;2.17;1.90;;;;;;;17.37;44.42;102456.06;5117793;28;20040;-58
2022/03/15 11:12:05;;;;;;;2.22;1.75;;;;;;;17.37;44.61;102454.22;5117925;28;20046;-59
2022/03/15 11:14:42;;;;;;;2.30;1.75;;;;;;;17.37;44.66;102448.00;5122856;28;20053;-60
2022/03/15 11:17:20;;;;;;;1.95;1.75;;;;;;;17.42;44.51;102452.06;5112562;28;20032;-60
2022/03/15 11:19:47;;;;;;;2.42;1.92;;;;;;;17.42;44.62;102448.50;5113795;28;20024;-59
2022/03/15 11:22:23;;;;;;;2.33;1.80;;;;;;;17.45;44.53;102449.09;5115215;27;20094;-60